createdAt,value
2023-04-08T00:05:10.789Z,1.83
2023-04-08T00:16:19.508Z,1.78
2023-04-08T00:27:28.674Z,1.62
2023-04-08T00:38:33.614Z,1.46
2023-04-08T00:49:06.728Z,1.45
2023-04-08T00:59:41.975Z,1.21
2023-04-08T01:11:24.038Z,0.95
2023-04-08T01:22:48.350Z,0.72
2023-04-08T01:34:13.242Z,0.66
2023-04-08T01:45:38.001Z,0.62
2023-04-08T01:56:51.589Z,0.52
2023-04-08T02:08:15.903Z,0.33
2023-04-08T02:19:37.682Z,0.23
2023-04-08T02:31:02.085Z,0.18
2023-04-08T02:42:26.430Z,0.12
2023-04-08T02:53:50.711Z,0.04
2023-04-08T03:05:07.639Z,-0.10
2023-04-08T03:16:32.065Z,-0.17
2023-04-08T03:27:56.427Z,-0.46
2023-04-08T03:39:20.943Z,-0.61
2023-04-08T03:50:45.903Z,-0.70
2023-04-08T04:02:10.612Z,-0.83
2023-04-08T04:13:27.370Z,-0.89
2023-04-08T04:24:46.378Z,-0.92
2023-04-08T04:36:10.892Z,-0.95
2023-04-08T04:47:35.448Z,-0.95
2023-04-08T04:58:59.990Z,-0.88
2023-04-08T05:10:24.470Z,-0.68
2023-04-08T05:21:48.870Z,-0.33
2023-04-08T05:33:02.439Z,-0.02
2023-04-08T05:44:26.997Z,0.42
2023-04-08T05:55:57.279Z,0.77
2023-04-08T06:07:22.688Z,1.10
2023-04-08T06:18:48.536Z,1.55
2023-04-08T06:30:13.654Z,1.99
2023-04-08T06:41:37.955Z,2.82
2023-04-08T06:53:03.710Z,4.46
2023-04-08T07:04:26.794Z,5.88
2023-04-08T07:15:41.977Z,6.98
2023-04-08T07:27:06.605Z,7.92
2023-04-08T07:39:08.315Z,8.10
2023-04-08T07:50:34.323Z,7.56
2023-04-08T08:02:22.250Z,7.66
2023-04-08T08:13:23.075Z,6.98
2023-04-08T08:24:49.471Z,6.73
2023-04-08T08:36:02.835Z,6.70
2023-04-08T08:47:25.894Z,6.94
2023-04-08T08:58:45.619Z,7.11
2023-04-08T09:10:09.456Z,7.18
2023-04-08T09:21:25.923Z,7.10
2023-04-08T09:32:39.957Z,7.24
2023-04-08T09:43:52.492Z,7.50
2023-04-08T09:54:54.770Z,7.75
2023-04-08T10:05:32.583Z,7.77
2023-04-08T10:16:56.507Z,8.04
2023-04-08T10:28:33.309Z,8.08
2023-04-08T10:40:09.612Z,8.21
2023-04-08T10:51:16.910Z,8.33
2023-04-08T11:12:45.339Z,8.01
2023-04-08T11:22:49.032Z,8.38
2023-04-08T11:32:52.457Z,8.60
2023-04-08T11:42:55.973Z,8.51
2023-04-08T11:52:59.801Z,8.52
2023-04-08T12:03:03.522Z,8.53
2023-04-08T12:13:07.356Z,8.13
2023-04-08T12:23:10.557Z,7.88
2023-04-08T12:33:14.617Z,7.78
2023-04-08T12:43:18.081Z,7.97
2023-04-08T12:53:21.816Z,7.63
2023-04-08T13:03:25.327Z,7.37
2023-04-08T13:13:28.803Z,7.06
2023-04-08T13:23:32.189Z,6.81
2023-04-08T13:34:09.484Z,6.80
2023-04-08T13:44:17.317Z,7.03
2023-04-08T13:54:22.797Z,6.83
2023-04-08T14:04:29.684Z,6.89
2023-04-08T14:14:39.036Z,6.75
2023-04-08T14:25:21.517Z,6.57
2023-04-08T14:35:24.786Z,6.44
2023-04-08T14:45:28.496Z,6.43
2023-04-08T14:55:33.641Z,6.31
2023-04-08T15:05:40.585Z,6.30
2023-04-08T15:16:19.403Z,6.47
2023-04-08T15:26:23.108Z,6.56
2023-04-08T15:36:27.763Z,6.52
2023-04-08T15:46:31.473Z,6.61
2023-04-08T15:56:35.064Z,6.54
2023-04-08T16:06:41.989Z,6.51
2023-04-08T16:16:45.697Z,6.48
2023-04-08T16:26:49.455Z,6.38
2023-04-08T16:36:53.764Z,6.32
2023-04-08T16:46:57.079Z,6.25
2023-04-08T16:57:00.562Z,6.14
2023-04-08T17:07:04.223Z,5.91
2023-04-08T17:17:07.924Z,5.72
2023-04-08T17:27:11.425Z,5.54
2023-04-08T17:37:14.552Z,5.41
2023-04-08T17:47:17.786Z,5.38
2023-04-08T17:57:21.570Z,5.27
2023-04-08T18:07:25.085Z,5.32
2023-04-08T18:17:28.387Z,5.15
2023-04-08T18:28:03.540Z,4.85
2023-04-08T18:38:07.109Z,4.60
2023-04-08T18:48:12.609Z,4.38
2023-04-08T18:58:16.633Z,4.24
2023-04-08T19:08:19.845Z,4.27
2023-04-08T19:18:23.464Z,4.31
2023-04-08T19:28:26.753Z,4.23
2023-04-08T19:38:30.834Z,4.10
2023-04-08T19:48:34.933Z,3.98
2023-04-08T19:58:38.315Z,3.97
2023-04-08T20:08:42.981Z,3.96
2023-04-08T20:18:46.309Z,3.94
2023-04-08T20:28:50.850Z,3.80
2023-04-08T20:38:55.346Z,3.65
2023-04-08T20:48:58.551Z,3.41
2023-04-08T20:59:02.155Z,3.33
2023-04-08T21:09:05.405Z,3.36
2023-04-08T21:19:09.485Z,3.35
2023-04-08T21:29:13.034Z,3.37
2023-04-08T21:39:16.278Z,3.43
2023-04-08T21:49:20.172Z,3.53
2023-04-08T21:59:55.647Z,3.60
2023-04-08T22:10:01.703Z,3.67
2023-04-08T22:20:06.710Z,3.89
2023-04-08T22:30:10.788Z,4.14
2023-04-08T22:40:14.245Z,4.19
2023-04-08T22:50:17.968Z,4.24
2023-04-08T23:00:21.449Z,4.29
2023-04-08T23:10:25.885Z,4.35
2023-04-08T23:20:29.104Z,4.44
2023-04-08T23:30:32.590Z,4.45
2023-04-08T23:40:35.908Z,4.51
2023-04-08T23:50:39.415Z,4.48
